createdAt,value
2023-05-05T00:01:18.028Z,47.05
2023-05-05T00:03:44.807Z,46.92
2023-05-05T00:06:11.572Z,47.25
2023-05-05T00:08:38.244Z,47.13
2023-05-05T00:11:04.983Z,47.85
2023-05-05T00:13:31.733Z,48.07
2023-05-05T00:15:58.583Z,47.97
2023-05-05T00:18:25.298Z,47.93
2023-05-05T00:20:52.467Z,48.13
2023-05-05T00:23:19.604Z,47.86
2023-05-05T00:25:46.602Z,48.22
2023-05-05T00:28:14.398Z,48.48
2023-05-05T00:30:41.145Z,48.67
2023-05-05T00:33:07.926Z,48.47
2023-05-05T00:35:34.850Z,48.59
2023-05-05T00:38:01.501Z,48.86
2023-05-05T00:40:28.181Z,49.27
2023-05-05T00:42:54.952Z,49.29
2023-05-05T00:45:21.695Z,49.17
2023-05-05T00:47:50.189Z,48.88
2023-05-05T00:50:27.019Z,49.07
2023-05-05T00:52:57.162Z,49.62
2023-05-05T00:55:23.943Z,49.79
2023-05-05T00:57:51.115Z,49.87
2023-05-05T01:00:18.184Z,50.21
2023-05-05T01:02:45.143Z,50.22
2023-05-05T01:05:13.524Z,50.95
2023-05-05T01:07:43.451Z,50.86
2023-05-05T01:10:20.146Z,51.13
2023-05-05T01:12:53.423Z,50.93
2023-05-05T01:15:39.069Z,51.52
2023-05-05T01:18:14.115Z,51.07
2023-05-05T01:20:46.145Z,51.69
2023-05-05T01:23:19.317Z,51.92
2023-05-05T01:26:06.152Z,52.60
2023-05-05T01:28:56.749Z,52.83
2023-05-05T01:31:45.224Z,53.10
2023-05-05T01:34:15.800Z,53.87
2023-05-05T01:36:44.900Z,53.76
2023-05-05T01:39:15.675Z,54.78
2023-05-05T01:41:45.902Z,55.12
2023-05-05T01:44:13.929Z,55.45
2023-05-05T01:46:40.753Z,56.46
2023-05-05T01:49:08.908Z,57.09
2023-05-05T01:51:35.782Z,57.96
2023-05-05T01:54:05.526Z,58.04
2023-05-05T01:56:32.645Z,59.12
2023-05-05T01:59:01.399Z,59.31
2023-05-05T02:01:29.084Z,60.24
2023-05-05T02:03:59.113Z,60.51
2023-05-05T02:06:28.435Z,60.73
2023-05-05T02:08:56.164Z,61.32
2023-05-05T02:11:23.611Z,62.09
2023-05-05T02:13:51.359Z,62.55
2023-05-05T02:16:18.994Z,62.84
2023-05-05T02:18:47.074Z,63.12
2023-05-05T02:21:14.957Z,63.77
2023-05-05T02:23:41.661Z,64.08
2023-05-05T02:26:09.808Z,64.22
2023-05-05T02:28:44.278Z,65.32
2023-05-05T02:31:12.752Z,65.44
2023-05-05T02:33:40.617Z,65.58
2023-05-05T02:36:13.117Z,65.96
2023-05-05T02:38:42.254Z,66.05
2023-05-05T02:41:13.185Z,65.78
2023-05-05T02:43:41.762Z,65.98
2023-05-05T02:46:08.591Z,65.86
2023-05-05T02:48:35.844Z,66.24
2023-05-05T02:51:02.609Z,65.90
2023-05-05T02:53:29.547Z,66.12
2023-05-05T02:56:29.907Z,66.37
2023-05-05T02:59:16.383Z,66.91
2023-05-05T03:02:20.715Z,67.83
2023-05-05T03:04:51.280Z,68.15
2023-05-05T03:07:30.233Z,68.75
2023-05-05T03:10:15.857Z,69.13
2023-05-05T03:12:50.169Z,69.79
2023-05-05T03:15:17.229Z,69.93
2023-05-05T03:17:44.473Z,70.77
2023-05-05T03:20:12.735Z,70.62
2023-05-05T03:22:39.427Z,71.31
2023-05-05T03:25:06.527Z,71.89
2023-05-05T03:27:33.213Z,72.49
2023-05-05T03:29:59.927Z,72.65
2023-05-05T03:32:27.323Z,72.90
2023-05-05T03:34:54.018Z,73.12
2023-05-05T03:37:20.695Z,73.34
2023-05-05T03:39:47.340Z,73.34
2023-05-05T03:42:14.062Z,73.40
2023-05-05T03:44:40.889Z,73.58
2023-05-05T03:47:07.542Z,73.57
2023-05-05T03:49:34.219Z,73.90
2023-05-05T03:52:00.942Z,73.78
2023-05-05T03:54:27.628Z,73.54
2023-05-05T03:56:54.331Z,73.90
2023-05-05T03:59:21.046Z,74.25
2023-05-05T04:01:49.216Z,74.20
2023-05-05T04:04:16.676Z,74.48
2023-05-05T04:06:43.401Z,74.73
2023-05-05T04:09:10.096Z,74.89
2023-05-05T04:11:36.781Z,74.81
2023-05-05T04:14:03.466Z,75.12
2023-05-05T04:16:31.230Z,74.83
2023-05-05T04:18:58.140Z,75.31
2023-05-05T04:21:24.821Z,75.42
2023-05-05T04:23:51.473Z,75.91
2023-05-05T04:26:18.207Z,76.42
2023-05-05T04:28:45.169Z,77.12
2023-05-05T04:31:11.951Z,77.77
2023-05-05T04:33:38.657Z,77.95
2023-05-05T04:36:05.497Z,78.47
2023-05-05T04:38:32.383Z,79.05
2023-05-05T04:41:00.154Z,79.35
2023-05-05T04:43:26.838Z,80.29
2023-05-05T04:45:54.874Z,80.55
2023-05-05T04:48:21.646Z,81.36
2023-05-05T04:50:48.319Z,81.80
2023-05-05T04:53:15.014Z,82.12
2023-05-05T04:55:41.695Z,82.30
2023-05-05T04:58:08.398Z,82.96
2023-05-05T05:00:37.151Z,82.99
2023-05-05T05:03:04.519Z,83.71
2023-05-05T05:05:31.332Z,83.61
2023-05-05T05:07:58.064Z,83.86
2023-05-05T05:10:24.727Z,83.73
2023-05-05T05:12:51.473Z,83.96
2023-05-05T05:15:18.332Z,83.87
2023-05-05T05:17:45.040Z,84.59
2023-05-05T05:20:11.958Z,84.76
2023-05-05T05:22:39.067Z,84.70
2023-05-05T05:25:06.256Z,84.92
2023-05-05T05:27:33.011Z,84.69
2023-05-05T05:29:59.799Z,85.33
2023-05-05T05:32:26.594Z,84.73
2023-05-05T05:34:53.327Z,84.57
2023-05-05T05:37:20.047Z,84.50
2023-05-05T05:39:52.968Z,84.44
2023-05-05T05:42:19.647Z,84.16
2023-05-05T05:44:51.324Z,83.91
2023-05-05T05:47:18.016Z,83.97
2023-05-05T05:49:44.782Z,83.59
2023-05-05T05:52:11.557Z,83.78
2023-05-05T05:54:38.239Z,83.91
2023-05-05T05:57:04.990Z,83.57
2023-05-05T05:59:31.818Z,83.18
2023-05-05T06:01:59.019Z,82.94
2023-05-05T06:04:25.858Z,82.82
2023-05-05T06:06:52.563Z,82.60
2023-05-05T06:09:19.216Z,82.11
2023-05-05T06:11:45.914Z,80.79
2023-05-05T06:14:12.630Z,80.06
2023-05-05T06:16:39.325Z,80.06
2023-05-05T06:19:09.865Z,79.45
2023-05-05T06:21:37.043Z,79.91
2023-05-05T06:24:04.042Z,79.46
2023-05-05T06:26:31.637Z,79.40
2023-05-05T06:28:58.326Z,79.67
2023-05-05T06:31:25.287Z,79.42
2023-05-05T06:33:52.008Z,78.89
2023-05-05T06:36:18.793Z,79.22
2023-05-05T06:38:45.592Z,78.84
2023-05-05T06:41:12.290Z,77.94
2023-05-05T06:43:39.844Z,77.45
2023-05-05T06:46:06.646Z,76.50
2023-05-05T06:48:33.291Z,75.85
2023-05-05T06:51:00.022Z,75.61
2023-05-05T06:53:26.794Z,75.33
2023-05-05T06:55:53.539Z,75.06
2023-05-05T06:58:21.392Z,74.59
2023-05-05T07:00:48.108Z,74.45
2023-05-05T07:03:15.068Z,73.90
2023-05-05T07:05:42.298Z,73.76
2023-05-05T07:08:09.296Z,73.73
2023-05-05T07:10:35.976Z,73.03
2023-05-05T07:13:02.759Z,72.56
2023-05-05T07:15:29.883Z,72.56
2023-05-05T07:17:57.128Z,72.14
2023-05-05T07:20:24.551Z,72.22
2023-05-05T07:22:51.546Z,72.35
2023-05-05T07:25:18.388Z,72.45
2023-05-05T07:27:45.182Z,73.00
2023-05-05T07:30:16.356Z,72.79
2023-05-05T07:32:44.234Z,73.12
2023-05-05T07:35:11.020Z,73.18
2023-05-05T07:37:37.780Z,73.52
2023-05-05T07:40:04.993Z,73.16
2023-05-05T07:42:31.798Z,73.11
2023-05-05T07:44:58.518Z,73.39
2023-05-05T07:47:25.407Z,73.46
2023-05-05T07:49:52.126Z,73.26
2023-05-05T07:52:20.286Z,73.49
2023-05-05T07:54:49.861Z,73.21
2023-05-05T07:57:16.768Z,73.28
2023-05-05T07:59:44.161Z,73.13
2023-05-05T08:02:12.918Z,73.34
2023-05-05T08:04:43.713Z,72.77
2023-05-05T08:07:10.842Z,72.95
2023-05-05T08:09:38.160Z,73.09
2023-05-05T08:12:05.370Z,72.84
2023-05-05T08:14:32.860Z,72.64
2023-05-05T08:16:59.571Z,72.78
2023-05-05T08:19:29.161Z,73.07
2023-05-05T08:21:56.597Z,72.86
2023-05-05T08:24:23.266Z,72.36
2023-05-05T08:26:50.087Z,72.10
2023-05-05T08:29:16.864Z,72.33
2023-05-05T08:31:44.805Z,71.96
2023-05-05T08:34:11.674Z,71.20
2023-05-05T08:36:38.384Z,70.40
2023-05-05T08:39:05.122Z,70.15
2023-05-05T08:41:33.311Z,70.85
2023-05-05T08:44:00.478Z,70.41
2023-05-05T08:46:28.487Z,69.75
2023-05-05T08:48:55.754Z,70.25
2023-05-05T08:51:23.057Z,69.74
2023-05-05T08:53:56.095Z,68.89
2023-05-05T08:56:26.996Z,68.22
2023-05-05T08:58:54.615Z,67.90
2023-05-05T09:01:21.494Z,67.15
2023-05-05T09:03:48.586Z,66.07
2023-05-05T09:06:23.673Z,65.10
2023-05-05T09:08:50.902Z,64.28
2023-05-05T09:11:17.755Z,64.09
2023-05-05T09:13:44.694Z,63.39
2023-05-05T09:16:11.756Z,62.62
2023-05-05T09:18:41.277Z,61.99
2023-05-05T09:21:25.038Z,61.99
2023-05-05T09:24:12.437Z,62.18
2023-05-05T09:26:44.682Z,61.60
2023-05-05T09:29:18.850Z,60.43
2023-05-05T09:31:47.115Z,60.06
2023-05-05T09:34:17.438Z,59.28
2023-05-05T09:36:48.175Z,58.41
2023-05-05T09:39:20.745Z,57.88
2023-05-05T09:41:47.609Z,57.47
2023-05-05T09:44:17.245Z,57.07
2023-05-05T09:46:51.751Z,56.56
2023-05-05T09:49:23.085Z,55.79
2023-05-05T09:51:49.875Z,55.87
2023-05-05T09:54:27.754Z,55.55
2023-05-05T09:56:55.718Z,55.90
2023-05-05T09:59:22.781Z,55.97
2023-05-05T10:01:50.991Z,56.96
2023-05-05T10:04:31.631Z,56.84
2023-05-05T10:07:03.526Z,57.15
2023-05-05T10:09:31.911Z,56.80
2023-05-05T10:12:00.599Z,56.94
2023-05-05T10:14:27.786Z,57.02
2023-05-05T10:17:04.470Z,57.78
2023-05-05T10:19:32.678Z,57.57
2023-05-05T10:22:03.486Z,57.26
2023-05-05T10:24:42.014Z,56.49
2023-05-05T10:27:20.776Z,55.94
2023-05-05T10:30:09.269Z,53.63
2023-05-05T10:33:00.583Z,52.39
2023-05-05T10:35:37.812Z,51.66
2023-05-05T10:38:09.129Z,51.56
2023-05-05T10:40:35.989Z,52.24
2023-05-05T10:43:02.692Z,52.07
2023-05-05T10:45:29.528Z,52.35
2023-05-05T10:47:59.423Z,52.07
2023-05-05T10:50:30.372Z,52.02
2023-05-05T10:53:39.283Z,52.99
2023-05-05T10:56:15.592Z,53.06
2023-05-05T10:58:58.409Z,53.58
2023-05-05T11:01:34.212Z,53.96
2023-05-05T11:04:20.470Z,53.65
2023-05-05T11:07:12.477Z,53.78
2023-05-05T11:10:03.577Z,54.67
2023-05-05T11:12:31.615Z,54.83
2023-05-05T11:15:26.571Z,55.77
2023-05-05T11:17:56.861Z,56.28
2023-05-05T11:20:43.764Z,56.25
2023-05-05T11:23:10.472Z,56.00
2023-05-05T11:25:38.178Z,55.72
2023-05-05T11:28:08.689Z,55.71
2023-05-05T11:30:36.466Z,56.25
2023-05-05T11:33:39.049Z,56.60
2023-05-05T11:36:38.816Z,56.39
2023-05-05T11:39:05.827Z,56.90
2023-05-05T11:41:32.649Z,57.59
2023-05-05T11:44:09.808Z,57.49
2023-05-05T11:46:36.821Z,58.24
2023-05-05T11:49:03.781Z,58.48
2023-05-05T11:51:31.244Z,58.16
2023-05-05T11:53:59.131Z,58.90
2023-05-05T11:56:26.434Z,59.34
2023-05-05T11:59:11.125Z,59.90
2023-05-05T12:01:41.719Z,59.91
2023-05-05T12:04:14.931Z,60.94
2023-05-05T12:06:42.323Z,64.25
2023-05-05T12:09:19.922Z,67.09
2023-05-05T12:11:57.368Z,69.56
2023-05-05T12:14:25.168Z,71.34
2023-05-05T12:16:58.398Z,72.29
2023-05-05T12:19:30.277Z,71.13
2023-05-05T12:21:57.191Z,70.00
2023-05-05T12:24:24.135Z,68.93
2023-05-05T12:26:50.820Z,68.69
2023-05-05T12:29:25.302Z,68.48
2023-05-05T12:31:52.126Z,67.90
2023-05-05T12:34:24.980Z,67.15
2023-05-05T12:36:51.981Z,66.93
2023-05-05T12:39:18.927Z,67.19
2023-05-05T12:41:45.737Z,66.93
2023-05-05T12:44:12.535Z,66.76
2023-05-05T12:46:46.574Z,65.50
2023-05-05T12:49:13.306Z,64.68
2023-05-05T12:51:53.031Z,62.73
2023-05-05T12:54:19.808Z,61.58
2023-05-05T12:56:47.856Z,59.84
2023-05-05T12:59:24.228Z,59.55
2023-05-05T13:01:52.701Z,58.69
2023-05-05T13:04:21.152Z,58.71
2023-05-05T13:06:49.602Z,58.37
2023-05-05T13:09:27.123Z,58.00
2023-05-05T13:11:54.873Z,58.03
2023-05-05T13:14:21.773Z,57.87
2023-05-05T13:16:48.593Z,57.01
2023-05-05T13:19:15.581Z,57.01
2023-05-05T13:21:42.449Z,57.17
2023-05-05T13:24:25.397Z,57.93
2023-05-05T13:26:56.740Z,57.55
2023-05-05T13:29:26.122Z,57.45
2023-05-05T13:31:55.166Z,57.59
2023-05-05T13:34:21.871Z,57.64
2023-05-05T13:36:48.676Z,57.94
2023-05-05T13:39:15.396Z,57.65
2023-05-05T13:41:42.134Z,57.82
2023-05-05T13:44:08.951Z,57.28
2023-05-05T13:46:35.658Z,57.85
2023-05-05T13:49:02.388Z,58.01
2023-05-05T13:51:29.682Z,58.00
2023-05-05T13:53:56.487Z,58.77
2023-05-05T13:56:26.380Z,58.81
2023-05-05T13:58:53.140Z,58.68
2023-05-05T14:01:19.967Z,59.39
2023-05-05T14:03:46.671Z,59.41
2023-05-05T14:06:13.401Z,60.37
2023-05-05T14:08:40.112Z,61.13
2023-05-05T14:11:08.229Z,61.29
2023-05-05T14:13:34.954Z,60.96
2023-05-05T14:16:01.672Z,60.78
2023-05-05T14:18:28.588Z,61.12
2023-05-05T14:20:55.316Z,62.17
2023-05-05T14:23:21.979Z,65.79
2023-05-05T14:25:48.780Z,68.33
2023-05-05T14:28:15.498Z,70.79
2023-05-05T14:30:42.154Z,73.34
2023-05-05T14:33:08.918Z,75.08
2023-05-05T14:35:35.900Z,76.38
2023-05-05T14:38:02.623Z,78.15
2023-05-05T14:40:30.452Z,78.92
2023-05-05T14:42:57.936Z,78.97
2023-05-05T14:45:24.648Z,79.13
2023-05-05T14:47:51.445Z,79.37
2023-05-05T14:50:18.203Z,79.69
2023-05-05T14:52:44.965Z,80.91
2023-05-05T14:55:12.107Z,82.48
2023-05-05T14:57:41.112Z,84.10
2023-05-05T15:00:08.424Z,85.20
2023-05-05T15:02:35.490Z,86.15
2023-05-05T15:05:02.568Z,87.28
2023-05-05T15:07:29.649Z,88.04
2023-05-05T15:09:59.200Z,89.28
2023-05-05T15:12:26.240Z,89.85
2023-05-05T15:14:53.128Z,90.84
2023-05-05T15:17:20.198Z,91.26
2023-05-05T15:19:47.087Z,92.18
2023-05-05T15:22:13.814Z,92.52
2023-05-05T15:24:40.714Z,93.44
2023-05-05T15:27:07.533Z,93.90
2023-05-05T15:29:34.362Z,94.55
2023-05-05T15:32:01.435Z,95.45
2023-05-05T15:34:28.248Z,95.46
2023-05-05T15:36:56.249Z,95.92
2023-05-05T15:39:23.051Z,96.26
2023-05-05T15:41:49.732Z,96.43
2023-05-05T15:44:16.615Z,96.40
2023-05-05T15:46:43.364Z,96.46
2023-05-05T15:49:10.882Z,96.49
2023-05-05T15:51:37.624Z,95.91
2023-05-05T15:54:04.566Z,96.11
2023-05-05T15:56:31.358Z,96.52
2023-05-05T15:58:58.150Z,96.62
2023-05-05T16:01:24.902Z,97.34
2023-05-05T16:03:52.059Z,97.38
2023-05-05T16:06:18.779Z,97.99
2023-05-05T16:08:47.889Z,97.84
2023-05-05T16:11:14.702Z,97.86
2023-05-05T16:13:42.701Z,97.99
2023-05-05T16:16:09.517Z,97.92
2023-05-05T16:18:36.435Z,97.44
2023-05-05T16:21:03.272Z,97.72
2023-05-05T16:23:30.052Z,97.80
2023-05-05T16:25:56.916Z,98.18
2023-05-05T16:28:23.568Z,98.52
2023-05-05T16:30:50.290Z,98.69
2023-05-05T16:33:17.002Z,98.26
2023-05-05T16:35:45.794Z,98.62
2023-05-05T16:38:12.752Z,97.92
2023-05-05T16:40:39.670Z,97.86
2023-05-05T16:43:06.508Z,97.67
2023-05-05T16:45:33.198Z,97.89
2023-05-05T16:47:59.928Z,97.41
2023-05-05T16:50:27.021Z,97.46
2023-05-05T16:52:53.857Z,97.23
2023-05-05T16:55:20.844Z,96.70
2023-05-05T16:57:48.142Z,96.62
2023-05-05T17:00:15.693Z,95.83
2023-05-05T17:02:42.548Z,95.97
2023-05-05T17:05:09.984Z,95.84
2023-05-05T17:07:37.023Z,96.03
2023-05-05T17:10:04.008Z,96.14
2023-05-05T17:12:30.893Z,96.09
2023-05-05T17:15:00.274Z,95.99
2023-05-05T17:17:27.028Z,95.90
2023-05-05T17:19:53.860Z,95.71
2023-05-05T17:22:20.705Z,96.13
2023-05-05T17:24:47.436Z,95.79
2023-05-05T17:27:14.265Z,95.54
2023-05-05T17:29:41.457Z,95.07
2023-05-05T17:32:09.098Z,94.71
2023-05-05T17:34:36.188Z,93.99
2023-05-05T17:37:09.975Z,93.75
2023-05-05T17:39:36.668Z,93.46
2023-05-05T17:42:11.764Z,93.75
2023-05-05T17:44:38.435Z,94.09
2023-05-05T17:47:07.863Z,94.93
2023-05-05T17:49:35.011Z,95.31
2023-05-05T17:52:02.109Z,95.36
2023-05-05T17:54:28.888Z,95.42
2023-05-05T17:56:55.674Z,95.47
2023-05-05T17:59:22.443Z,95.71
2023-05-05T18:01:49.261Z,95.50
2023-05-05T18:04:16.216Z,95.49
2023-05-05T18:06:42.925Z,95.42
2023-05-05T18:09:11.288Z,96.06
2023-05-05T18:11:38.272Z,96.42
2023-05-05T18:14:05.166Z,96.83
2023-05-05T18:16:32.577Z,97.02
2023-05-05T18:18:59.495Z,97.17
2023-05-05T18:21:26.278Z,97.91
2023-05-05T18:23:57.246Z,98.21
2023-05-05T18:26:28.718Z,98.70
2023-05-05T18:28:55.432Z,98.96
2023-05-05T18:31:22.452Z,99.22
2023-05-05T18:33:49.158Z,99.48
2023-05-05T18:36:16.260Z,99.73
2023-05-05T18:38:42.996Z,100.00
2023-05-05T18:41:09.761Z,100.00
2023-05-05T18:43:36.507Z,100.00
2023-05-05T18:46:03.353Z,100.00
2023-05-05T18:48:30.740Z,100.00
2023-05-05T18:51:04.724Z,100.00
2023-05-05T18:53:36.859Z,100.00
2023-05-05T18:56:03.603Z,100.00
2023-05-05T18:58:30.791Z,100.00
2023-05-05T19:00:57.769Z,100.00
2023-05-05T19:03:24.514Z,100.00
2023-05-05T19:05:51.338Z,100.00
2023-05-05T19:08:24.004Z,100.00
2023-05-05T19:10:50.776Z,100.00
2023-05-05T19:13:17.625Z,100.00
2023-05-05T19:15:44.890Z,100.00
2023-05-05T19:18:14.525Z,100.00
2023-05-05T19:20:43.093Z,100.00
2023-05-05T19:23:10.116Z,100.00
2023-05-05T19:25:37.132Z,100.00
2023-05-05T19:28:04.090Z,100.00
2023-05-05T19:30:31.455Z,100.00
2023-05-05T19:32:58.299Z,100.00
2023-05-05T19:35:25.044Z,100.00
2023-05-05T19:37:51.753Z,100.00
2023-05-05T19:40:18.459Z,100.00
2023-05-05T19:42:45.122Z,100.00
2023-05-05T19:45:11.824Z,100.00
2023-05-05T19:47:38.694Z,100.00
2023-05-05T19:50:05.951Z,100.00
2023-05-05T19:52:32.717Z,100.00
2023-05-05T19:54:59.451Z,100.00
2023-05-05T19:57:26.508Z,100.00
2023-05-05T19:59:53.283Z,100.00
2023-05-05T20:02:22.156Z,100.00
2023-05-05T20:04:49.769Z,100.00
2023-05-05T20:07:18.126Z,100.00
2023-05-05T20:09:45.136Z,100.00
2023-05-05T20:12:12.403Z,100.00
2023-05-05T20:14:39.141Z,100.00
2023-05-05T20:17:05.834Z,100.00
2023-05-05T20:19:32.594Z,100.00
2023-05-05T20:21:59.462Z,100.00
2023-05-05T20:24:26.410Z,100.00
2023-05-05T20:26:53.211Z,100.00
2023-05-05T20:29:20.555Z,100.00
2023-05-05T20:31:48.325Z,100.00
2023-05-05T20:34:15.229Z,100.00
2023-05-05T20:36:42.074Z,100.00
2023-05-05T20:39:08.892Z,100.00
2023-05-05T20:41:36.854Z,100.00
2023-05-05T20:44:03.650Z,100.00
2023-05-05T20:46:30.431Z,100.00
2023-05-05T20:48:57.106Z,100.00
2023-05-05T20:51:23.969Z,100.00
2023-05-05T20:53:50.872Z,100.00
2023-05-05T20:56:17.525Z,100.00
2023-05-05T20:58:44.212Z,100.00
2023-05-05T21:01:12.113Z,100.00
2023-05-05T21:03:38.973Z,100.00
2023-05-05T21:06:06.058Z,100.00
2023-05-05T21:08:32.909Z,100.00
2023-05-05T21:10:59.657Z,100.00
2023-05-05T21:13:26.459Z,100.00
2023-05-05T21:15:53.250Z,100.00
2023-05-05T21:18:20.316Z,100.00
2023-05-05T21:20:47.064Z,100.00
2023-05-05T21:23:13.854Z,100.00
2023-05-05T21:25:40.842Z,100.00
2023-05-05T21:28:07.557Z,100.00
2023-05-05T21:30:34.357Z,100.00
2023-05-05T21:33:01.217Z,100.00
2023-05-05T21:35:28.130Z,100.00
2023-05-05T21:37:54.863Z,100.00
2023-05-05T21:40:21.650Z,100.00
2023-05-05T21:42:48.336Z,100.00
2023-05-05T21:45:15.591Z,100.00
2023-05-05T21:47:42.524Z,100.00
2023-05-05T21:50:10.412Z,100.00
2023-05-05T21:52:37.427Z,100.00
2023-05-05T21:55:04.456Z,100.00
2023-05-05T21:57:31.166Z,100.00
2023-05-05T21:59:57.811Z,100.00
2023-05-05T22:02:24.713Z,100.00
2023-05-05T22:04:51.842Z,100.00
2023-05-05T22:07:18.553Z,100.00
2023-05-05T22:09:46.199Z,100.00
2023-05-05T22:12:13.350Z,100.00
2023-05-05T22:14:40.221Z,100.00
2023-05-05T22:17:07.000Z,100.00
2023-05-05T22:19:33.678Z,100.00
2023-05-05T22:22:00.460Z,100.00
2023-05-05T22:24:27.147Z,100.00
2023-05-05T22:26:54.226Z,100.00
2023-05-05T22:29:21.503Z,100.00
2023-05-05T22:31:48.454Z,100.00
2023-05-05T22:34:16.124Z,100.00
2023-05-05T22:36:42.956Z,100.00
2023-05-05T22:39:09.734Z,100.00
2023-05-05T22:41:36.378Z,100.00
2023-05-05T22:44:03.166Z,100.00
2023-05-05T22:46:29.966Z,100.00
2023-05-05T22:48:56.820Z,100.00
2023-05-05T22:51:23.929Z,100.00
2023-05-05T22:53:51.294Z,100.00
2023-05-05T22:56:18.132Z,100.00
2023-05-05T22:58:46.694Z,100.00
2023-05-05T23:01:13.454Z,100.00
2023-05-05T23:03:40.155Z,100.00
2023-05-05T23:06:07.035Z,100.00
2023-05-05T23:08:33.955Z,100.00
2023-05-05T23:11:01.015Z,100.00
2023-05-05T23:13:27.710Z,100.00
2023-05-05T23:15:54.451Z,100.00
2023-05-05T23:18:21.132Z,100.00
2023-05-05T23:20:47.875Z,100.00
2023-05-05T23:23:14.729Z,100.00
2023-05-05T23:25:41.447Z,100.00
2023-05-05T23:28:08.360Z,100.00
2023-05-05T23:30:35.111Z,100.00
2023-05-05T23:33:02.974Z,100.00
2023-05-05T23:35:30.162Z,100.00
2023-05-05T23:37:57.369Z,100.00
2023-05-05T23:40:24.190Z,100.00
2023-05-05T23:42:50.882Z,100.00
2023-05-05T23:45:19.326Z,100.00
2023-05-05T23:47:46.381Z,100.00
2023-05-05T23:50:13.060Z,100.00
2023-05-05T23:52:39.803Z,100.00
2023-05-05T23:55:07.321Z,100.00
2023-05-05T23:57:35.648Z,100.00
